sensor_id;sensor_type;location;lat;lon;timestamp;temperature;humidity
39847;DHT22;25517;52.422;10.782;2023-01-15T00:00:00;10.20;99.90
39847;DHT22;25517;52.422;10.782;2023-01-15T00:02:25;10.20;99.90
39847;DHT22;25517;52.422;10.782;2023-01-15T00:04:51;10.30;99.90
39847;DHT22;25517;52.422;10.782;2023-01-15T00:07:16;10.20;99.90
39847;DHT22;25517;52.422;10.782;2023-01-15T00:09:42;10.20;99.90
39847;DHT22;25517;52.422;10.782;2023-01-15T00:12:07;10.10;99.90
39847;DHT22;25517;52.422;10.782;2023-01-15T00:14:33;10.10;99.90
39847;DHT22;25517;52.422;10.782;2023-01-15T00:16:58;10.10;99.90
39847;DHT22;25517;52.422;10.782;2023-01-15T00:19:24;10.00;99.90
39847;DHT22;25517;52.422;10.782;2023-01-15T00:21:49;10.00;99.90
39847;DHT22;25517;52.422;10.782;2023-01-15T00:24:17;10.00;99.90
39847;DHT22;25517;52.422;10.782;2023-01-15T00:27:01;10.00;99.90
39847;DHT22;25517;52.422;10.782;2023-01-15T00:29:45;10.20;99.90
39847;DHT22;25517;52.422;10.782;2023-01-15T00:32:10;10.30;99.90
39847;DHT22;25517;52.422;10.782;2023-01-15T00:34:37;10.20;99.90
39847;DHT22;25517;52.422;10.782;2023-01-15T00:37:02;10.20;99.90
39847;DHT22;25517;52.422;10.782;2023-01-15T00:39:28;10.30;99.90
39847;DHT22;25517;52.422;10.782;2023-01-15T00:41:54;10.20;99.90
39847;DHT22;25517;52.422;10.782;2023-01-15T00:44:20;10.10;99.90
39847;DHT22;25517;52.422;10.782;2023-01-15T00:46:47;10.10;99.90
39847;DHT22;25517;52.422;10.782;2023-01-15T00:49:13;10.10;99.90
39847;DHT22;25517;52.422;10.782;2023-01-15T00:51:39;10.10;99.90
39847;DHT22;25517;52.422;10.782;2023-01-15T00:54:04;10.00;99.90
39847;DHT22;25517;52.422;10.782;2023-01-15T00:56:30;10.10;99.90
39847;DHT22;25517;52.422;10.782;2023-01-15T00:58:56;10.10;99.90
39847;DHT22;25517;52.422;10.782;2023-01-15T01:01:22;10.10;99.90
39847;DHT22;25517;52.422;10.782;2023-01-15T01:03:47;10.00;99.90
39847;DHT22;25517;52.422;10.782;2023-01-15T01:06:16;9.90;99.90
39847;DHT22;25517;52.422;10.782;2023-01-15T01:08:43;9.80;99.90
39847;DHT22;25517;52.422;10.782;2023-01-15T01:11:13;9.70;99.90
39847;DHT22;25517;52.422;10.782;2023-01-15T01:13:38;9.60;99.90
39847;DHT22;25517;52.422;10.782;2023-01-15T01:16:30;9.40;99.90
39847;DHT22;25517;52.422;10.782;2023-01-15T01:18:58;9.20;99.90
39847;DHT22;25517;52.422;10.782;2023-01-15T01:21:25;9.00;99.90
39847;DHT22;25517;52.422;10.782;2023-01-15T01:23:50;8.70;99.90
39847;DHT22;25517;52.422;10.782;2023-01-15T01:26:16;8.60;99.90
39847;DHT22;25517;52.422;10.782;2023-01-15T01:28:42;8.40;99.90
39847;DHT22;25517;52.422;10.782;2023-01-15T01:31:08;8.30;99.90
39847;DHT22;25517;52.422;10.782;2023-01-15T01:33:34;8.20;99.90
39847;DHT22;25517;52.422;10.782;2023-01-15T01:36:00;8.00;99.90
39847;DHT22;25517;52.422;10.782;2023-01-15T01:38:26;7.90;99.90
39847;DHT22;25517;52.422;10.782;2023-01-15T01:40:52;7.70;99.90
39847;DHT22;25517;52.422;10.782;2023-01-15T01:43:23;7.60;99.90
39847;DHT22;25517;52.422;10.782;2023-01-15T01:45:49;7.60;99.90
39847;DHT22;25517;52.422;10.782;2023-01-15T01:48:16;7.50;99.90
39847;DHT22;25517;52.422;10.782;2023-01-15T01:50:43;7.40;99.90
39847;DHT22;25517;52.422;10.782;2023-01-15T01:53:17;7.30;99.90
39847;DHT22;25517;52.422;10.782;2023-01-15T01:55:44;7.30;99.90
39847;DHT22;25517;52.422;10.782;2023-01-15T01:58:11;7.20;99.90
39847;DHT22;25517;52.422;10.782;2023-01-15T02:00:40;7.20;99.90
39847;DHT22;25517;52.422;10.782;2023-01-15T02:03:08;7.20;99.90
39847;DHT22;25517;52.422;10.782;2023-01-15T02:05:39;7.10;99.90
39847;DHT22;25517;52.422;10.782;2023-01-15T02:08:08;7.00;99.90
39847;DHT22;25517;52.422;10.782;2023-01-15T02:10:34;6.90;99.90
39847;DHT22;25517;52.422;10.782;2023-01-15T02:15:38;6.60;99.90
39847;DHT22;25517;52.422;10.782;2023-01-15T02:18:21;6.60;99.90
39847;DHT22;25517;52.422;10.782;2023-01-15T02:20:54;6.50;99.90
39847;DHT22;25517;52.422;10.782;2023-01-15T02:23:49;6.40;99.90
39847;DHT22;25517;52.422;10.782;2023-01-15T02:29:14;6.30;99.90
39847;DHT22;25517;52.422;10.782;2023-01-15T02:31:45;6.20;99.90
39847;DHT22;25517;52.422;10.782;2023-01-15T02:34:23;6.30;99.90
39847;DHT22;25517;52.422;10.782;2023-01-15T02:37:02;6.20;99.90
39847;DHT22;25517;52.422;10.782;2023-01-15T02:39:32;6.10;99.90
39847;DHT22;25517;52.422;10.782;2023-01-15T02:42:01;6.10;99.90
39847;DHT22;25517;52.422;10.782;2023-01-15T02:44:30;6.10;99.90
39847;DHT22;25517;52.422;10.782;2023-01-15T02:46:57;6.00;99.90
39847;DHT22;25517;52.422;10.782;2023-01-15T02:49:23;6.00;99.90
39847;DHT22;25517;52.422;10.782;2023-01-15T02:52:05;6.00;99.90
39847;DHT22;25517;52.422;10.782;2023-01-15T02:54:40;6.00;99.90
39847;DHT22;25517;52.422;10.782;2023-01-15T02:57:09;5.90;99.90
39847;DHT22;25517;52.422;10.782;2023-01-15T02:59:41;5.90;99.90
39847;DHT22;25517;52.422;10.782;2023-01-15T03:02:21;5.90;99.90
39847;DHT22;25517;52.422;10.782;2023-01-15T03:04:59;5.90;99.90
39847;DHT22;25517;52.422;10.782;2023-01-15T03:07:36;5.90;99.90
39847;DHT22;25517;52.422;10.782;2023-01-15T03:10:04;5.80;99.90
39847;DHT22;25517;52.422;10.782;2023-01-15T03:18:46;5.70;99.90
39847;DHT22;25517;52.422;10.782;2023-01-15T03:21:18;5.70;99.90
39847;DHT22;25517;52.422;10.782;2023-01-15T03:23:49;5.60;99.90
39847;DHT22;25517;52.422;10.782;2023-01-15T03:26:15;5.60;99.90
39847;DHT22;25517;52.422;10.782;2023-01-15T03:28:42;5.60;99.90
39847;DHT22;25517;52.422;10.782;2023-01-15T03:31:08;5.50;99.90
39847;DHT22;25517;52.422;10.782;2023-01-15T03:33:34;5.50;99.90
39847;DHT22;25517;52.422;10.782;2023-01-15T03:36:00;5.50;99.90
39847;DHT22;25517;52.422;10.782;2023-01-15T03:38:32;5.50;99.90
39847;DHT22;25517;52.422;10.782;2023-01-15T03:41:31;5.50;99.90
39847;DHT22;25517;52.422;10.782;2023-01-15T03:47:13;5.50;99.90
39847;DHT22;25517;52.422;10.782;2023-01-15T03:49:50;5.60;99.90
39847;DHT22;25517;52.422;10.782;2023-01-15T03:52:42;5.50;99.90
39847;DHT22;25517;52.422;10.782;2023-01-15T03:58:18;5.50;99.90
39847;DHT22;25517;52.422;10.782;2023-01-15T04:00:55;5.50;99.90
39847;DHT22;25517;52.422;10.782;2023-01-15T04:03:25;5.50;99.90
39847;DHT22;25517;52.422;10.782;2023-01-15T04:05:53;5.50;99.90
39847;DHT22;25517;52.422;10.782;2023-01-15T04:08:20;5.60;99.90
39847;DHT22;25517;52.422;10.782;2023-01-15T04:10:54;5.60;99.90
39847;DHT22;25517;52.422;10.782;2023-01-15T04:13:20;5.60;99.90
39847;DHT22;25517;52.422;10.782;2023-01-15T04:15:46;5.60;99.90
39847;DHT22;25517;52.422;10.782;2023-01-15T04:18:12;5.60;99.90
39847;DHT22;25517;52.422;10.782;2023-01-15T04:20:37;5.60;99.90
39847;DHT22;25517;52.422;10.782;2023-01-15T04:23:03;5.60;99.90
39847;DHT22;25517;52.422;10.782;2023-01-15T04:25:28;5.60;99.90
39847;DHT22;25517;52.422;10.782;2023-01-15T04:27:54;5.60;99.90
39847;DHT22;25517;52.422;10.782;2023-01-15T04:30:20;5.50;99.90
39847;DHT22;25517;52.422;10.782;2023-01-15T04:32:49;5.60;99.90
39847;DHT22;25517;52.422;10.782;2023-01-15T04:35:15;5.60;99.90
39847;DHT22;25517;52.422;10.782;2023-01-15T04:37:41;5.60;99.90
39847;DHT22;25517;52.422;10.782;2023-01-15T04:40:08;5.60;99.90
39847;DHT22;25517;52.422;10.782;2023-01-15T04:42:34;5.60;99.90
39847;DHT22;25517;52.422;10.782;2023-01-15T04:45:18;5.60;99.90
39847;DHT22;25517;52.422;10.782;2023-01-15T04:47:43;5.70;99.90
39847;DHT22;25517;52.422;10.782;2023-01-15T04:50:10;5.60;99.90
39847;DHT22;25517;52.422;10.782;2023-01-15T04:52:36;5.60;99.90
39847;DHT22;25517;52.422;10.782;2023-01-15T04:55:02;5.60;99.90
39847;DHT22;25517;52.422;10.782;2023-01-15T04:57:28;5.70;99.90
39847;DHT22;25517;52.422;10.782;2023-01-15T04:59:54;5.70;99.90
39847;DHT22;25517;52.422;10.782;2023-01-15T05:02:19;5.60;99.90
39847;DHT22;25517;52.422;10.782;2023-01-15T05:04:45;5.70;99.90
39847;DHT22;25517;52.422;10.782;2023-01-15T05:07:10;5.70;99.90
39847;DHT22;25517;52.422;10.782;2023-01-15T05:09:36;5.70;99.90
39847;DHT22;25517;52.422;10.782;2023-01-15T05:12:01;5.70;99.90
39847;DHT22;25517;52.422;10.782;2023-01-15T05:14:27;5.70;99.90
39847;DHT22;25517;52.422;10.782;2023-01-15T05:16:53;5.70;99.90
39847;DHT22;25517;52.422;10.782;2023-01-15T05:19:18;5.70;99.90
39847;DHT22;25517;52.422;10.782;2023-01-15T05:21:45;5.70;99.90
39847;DHT22;25517;52.422;10.782;2023-01-15T05:24:15;5.70;99.90
39847;DHT22;25517;52.422;10.782;2023-01-15T05:26:41;5.80;99.90
39847;DHT22;25517;52.422;10.782;2023-01-15T05:29:07;5.80;99.90
39847;DHT22;25517;52.422;10.782;2023-01-15T05:31:34;5.80;99.90
39847;DHT22;25517;52.422;10.782;2023-01-15T05:33:59;5.80;99.90
39847;DHT22;25517;52.422;10.782;2023-01-15T05:36:28;5.80;99.90
39847;DHT22;25517;52.422;10.782;2023-01-15T05:38:55;5.90;99.90
39847;DHT22;25517;52.422;10.782;2023-01-15T05:41:23;5.90;99.90
39847;DHT22;25517;52.422;10.782;2023-01-15T05:44:10;5.80;99.90
39847;DHT22;25517;52.422;10.782;2023-01-15T05:46:37;5.90;99.90
39847;DHT22;25517;52.422;10.782;2023-01-15T05:49:05;5.90;99.90
39847;DHT22;25517;52.422;10.782;2023-01-15T05:51:33;5.80;99.90
39847;DHT22;25517;52.422;10.782;2023-01-15T05:53:58;5.90;99.90
39847;DHT22;25517;52.422;10.782;2023-01-15T05:56:24;5.90;99.90
39847;DHT22;25517;52.422;10.782;2023-01-15T05:58:50;5.90;99.90
39847;DHT22;25517;52.422;10.782;2023-01-15T06:01:16;5.90;99.90
39847;DHT22;25517;52.422;10.782;2023-01-15T06:03:42;5.90;99.90
39847;DHT22;25517;52.422;10.782;2023-01-15T06:06:12;5.90;99.90
39847;DHT22;25517;52.422;10.782;2023-01-15T06:08:38;5.90;99.90
39847;DHT22;25517;52.422;10.782;2023-01-15T06:11:04;5.90;99.90
39847;DHT22;25517;52.422;10.782;2023-01-15T06:13:31;6.00;99.90
39847;DHT22;25517;52.422;10.782;2023-01-15T06:15:59;5.90;99.90
39847;DHT22;25517;52.422;10.782;2023-01-15T06:18:24;6.00;99.90
39847;DHT22;25517;52.422;10.782;2023-01-15T06:20:50;6.00;99.90
39847;DHT22;25517;52.422;10.782;2023-01-15T06:23:16;6.00;99.90
39847;DHT22;25517;52.422;10.782;2023-01-15T06:25:42;5.90;99.90
39847;DHT22;25517;52.422;10.782;2023-01-15T06:28:08;5.90;99.90
39847;DHT22;25517;52.422;10.782;2023-01-15T06:30:35;5.90;99.90
39847;DHT22;25517;52.422;10.782;2023-01-15T06:33:01;5.90;99.90
39847;DHT22;25517;52.422;10.782;2023-01-15T06:35:27;5.90;99.90
39847;DHT22;25517;52.422;10.782;2023-01-15T06:37:52;5.90;99.90
39847;DHT22;25517;52.422;10.782;2023-01-15T06:40:18;5.90;99.90
39847;DHT22;25517;52.422;10.782;2023-01-15T06:42:43;5.90;99.90
39847;DHT22;25517;52.422;10.782;2023-01-15T06:45:36;5.90;99.90
39847;DHT22;25517;52.422;10.782;2023-01-15T06:48:20;5.90;99.90
39847;DHT22;25517;52.422;10.782;2023-01-15T06:50:46;5.90;99.90
39847;DHT22;25517;52.422;10.782;2023-01-15T06:53:11;5.90;99.90
39847;DHT22;25517;52.422;10.782;2023-01-15T06:55:38;5.90;99.90
39847;DHT22;25517;52.422;10.782;2023-01-15T06:58:03;5.90;99.90
39847;DHT22;25517;52.422;10.782;2023-01-15T07:00:29;5.90;99.90
39847;DHT22;25517;52.422;10.782;2023-01-15T07:02:54;5.80;99.90
39847;DHT22;25517;52.422;10.782;2023-01-15T07:05:20;5.80;99.90
39847;DHT22;25517;52.422;10.782;2023-01-15T07:07:45;5.90;99.90
39847;DHT22;25517;52.422;10.782;2023-01-15T07:10:11;5.90;99.90
39847;DHT22;25517;52.422;10.782;2023-01-15T07:12:36;5.90;99.90
39847;DHT22;25517;52.422;10.782;2023-01-15T07:15:02;5.90;99.90
39847;DHT22;25517;52.422;10.782;2023-01-15T07:17:27;5.80;99.90
39847;DHT22;25517;52.422;10.782;2023-01-15T07:19:53;5.80;99.90
39847;DHT22;25517;52.422;10.782;2023-01-15T07:22:18;5.80;99.90
39847;DHT22;25517;52.422;10.782;2023-01-15T07:24:44;5.80;99.90
39847;DHT22;25517;52.422;10.782;2023-01-15T07:27:09;5.80;99.90
39847;DHT22;25517;52.422;10.782;2023-01-15T07:29:35;5.80;99.90
39847;DHT22;25517;52.422;10.782;2023-01-15T07:32:00;5.80;99.90
39847;DHT22;25517;52.422;10.782;2023-01-15T07:34:26;5.80;99.90
39847;DHT22;25517;52.422;10.782;2023-01-15T07:36:51;5.90;99.90
39847;DHT22;25517;52.422;10.782;2023-01-15T07:39:17;5.90;99.90
39847;DHT22;25517;52.422;10.782;2023-01-15T07:41:43;5.90;99.90
39847;DHT22;25517;52.422;10.782;2023-01-15T07:44:26;5.90;99.90
39847;DHT22;25517;52.422;10.782;2023-01-15T07:47:18;5.90;99.90
39847;DHT22;25517;52.422;10.782;2023-01-15T07:50:03;6.00;99.90
39847;DHT22;25517;52.422;10.782;2023-01-15T07:52:29;6.00;99.90
39847;DHT22;25517;52.422;10.782;2023-01-15T07:54:55;6.00;99.90
39847;DHT22;25517;52.422;10.782;2023-01-15T07:57:21;6.10;99.90
39847;DHT22;25517;52.422;10.782;2023-01-15T07:59:47;6.00;99.90
39847;DHT22;25517;52.422;10.782;2023-01-15T08:02:13;6.00;99.90
39847;DHT22;25517;52.422;10.782;2023-01-15T08:04:39;6.00;99.90
39847;DHT22;25517;52.422;10.782;2023-01-15T08:07:05;6.10;99.90
39847;DHT22;25517;52.422;10.782;2023-01-15T08:09:31;6.10;99.90
39847;DHT22;25517;52.422;10.782;2023-01-15T08:12:01;6.10;99.90
39847;DHT22;25517;52.422;10.782;2023-01-15T08:14:45;6.20;99.90
39847;DHT22;25517;52.422;10.782;2023-01-15T08:17:33;6.20;99.90
39847;DHT22;25517;52.422;10.782;2023-01-15T08:19:59;6.20;99.90
39847;DHT22;25517;52.422;10.782;2023-01-15T08:22:25;6.10;99.90
39847;DHT22;25517;52.422;10.782;2023-01-15T08:24:50;6.20;99.90
39847;DHT22;25517;52.422;10.782;2023-01-15T08:27:16;6.20;99.90
39847;DHT22;25517;52.422;10.782;2023-01-15T08:29:41;6.20;99.90
39847;DHT22;25517;52.422;10.782;2023-01-15T08:32:07;6.20;99.90
39847;DHT22;25517;52.422;10.782;2023-01-15T08:34:33;6.20;99.90
39847;DHT22;25517;52.422;10.782;2023-01-15T08:36:58;6.20;99.90
39847;DHT22;25517;52.422;10.782;2023-01-15T08:39:25;6.20;99.90
39847;DHT22;25517;52.422;10.782;2023-01-15T08:41:51;6.30;99.90
39847;DHT22;25517;52.422;10.782;2023-01-15T08:44:17;6.20;99.90
39847;DHT22;25517;52.422;10.782;2023-01-15T08:46:43;6.30;99.90
39847;DHT22;25517;52.422;10.782;2023-01-15T08:49:11;6.40;99.90
39847;DHT22;25517;52.422;10.782;2023-01-15T08:51:36;6.40;99.90
39847;DHT22;25517;52.422;10.782;2023-01-15T08:54:02;6.40;99.90
39847;DHT22;25517;52.422;10.782;2023-01-15T08:56:28;6.40;99.90
39847;DHT22;25517;52.422;10.782;2023-01-15T08:58:53;6.40;99.90
39847;DHT22;25517;52.422;10.782;2023-01-15T09:01:19;6.50;99.90
39847;DHT22;25517;52.422;10.782;2023-01-15T09:03:44;6.50;99.90
39847;DHT22;25517;52.422;10.782;2023-01-15T09:06:10;6.60;99.90
39847;DHT22;25517;52.422;10.782;2023-01-15T09:08:37;6.60;99.90
39847;DHT22;25517;52.422;10.782;2023-01-15T09:11:05;6.60;99.90
39847;DHT22;25517;52.422;10.782;2023-01-15T09:13:31;6.60;99.90
39847;DHT22;25517;52.422;10.782;2023-01-15T09:16:01;6.60;99.90
39847;DHT22;25517;52.422;10.782;2023-01-15T09:18:27;6.70;99.90
39847;DHT22;25517;52.422;10.782;2023-01-15T09:20:53;6.60;99.90
39847;DHT22;25517;52.422;10.782;2023-01-15T09:23:18;6.70;99.90
39847;DHT22;25517;52.422;10.782;2023-01-15T09:25:54;6.70;99.90
39847;DHT22;25517;52.422;10.782;2023-01-15T09:28:20;6.60;99.90
39847;DHT22;25517;52.422;10.782;2023-01-15T09:30:46;6.60;99.90
39847;DHT22;25517;52.422;10.782;2023-01-15T09:33:12;6.70;99.90
39847;DHT22;25517;52.422;10.782;2023-01-15T09:35:38;6.60;99.90
39847;DHT22;25517;52.422;10.782;2023-01-15T09:38:03;6.60;99.90
39847;DHT22;25517;52.422;10.782;2023-01-15T09:40:50;6.70;99.90
39847;DHT22;25517;52.422;10.782;2023-01-15T09:46:11;6.90;99.90
39847;DHT22;25517;52.422;10.782;2023-01-15T09:49:00;6.90;99.90
39847;DHT22;25517;52.422;10.782;2023-01-15T09:51:40;6.90;99.90
39847;DHT22;25517;52.422;10.782;2023-01-15T09:56:56;7.00;99.90
39847;DHT22;25517;52.422;10.782;2023-01-15T09:59:45;7.10;99.90
39847;DHT22;25517;52.422;10.782;2023-01-15T10:02:25;7.00;99.90
39847;DHT22;25517;52.422;10.782;2023-01-15T10:08:22;7.10;99.90
39847;DHT22;25517;52.422;10.782;2023-01-15T10:11:01;7.10;99.90
39847;DHT22;25517;52.422;10.782;2023-01-15T10:16:12;7.10;99.90
39847;DHT22;25517;52.422;10.782;2023-01-15T10:18:41;7.20;99.90
39847;DHT22;25517;52.422;10.782;2023-01-15T10:29:42;7.30;99.90
39847;DHT22;25517;52.422;10.782;2023-01-15T10:32:34;7.30;99.90
39847;DHT22;25517;52.422;10.782;2023-01-15T10:35:20;7.50;99.90
39847;DHT22;25517;52.422;10.782;2023-01-15T10:43:24;7.80;99.90
39847;DHT22;25517;52.422;10.782;2023-01-15T10:46:04;7.70;99.90
39847;DHT22;25517;52.422;10.782;2023-01-15T10:48:56;8.00;99.90
39847;DHT22;25517;52.422;10.782;2023-01-15T10:51:30;8.10;99.90
39847;DHT22;25517;52.422;10.782;2023-01-15T10:57:10;7.90;99.90
39847;DHT22;25517;52.422;10.782;2023-01-15T11:04:51;7.40;99.90
39847;DHT22;25517;52.422;10.782;2023-01-15T11:07:24;7.40;99.90
39847;DHT22;25517;52.422;10.782;2023-01-15T11:09:51;7.20;99.90
39847;DHT22;25517;52.422;10.782;2023-01-15T11:12:26;7.20;99.90
39847;DHT22;25517;52.422;10.782;2023-01-15T11:14:52;7.20;99.90
39847;DHT22;25517;52.422;10.782;2023-01-15T11:17:41;7.30;99.90
39847;DHT22;25517;52.422;10.782;2023-01-15T11:20:35;7.20;99.90
39847;DHT22;25517;52.422;10.782;2023-01-15T11:23:09;7.20;99.90
39847;DHT22;25517;52.422;10.782;2023-01-15T11:25:34;7.20;99.90
39847;DHT22;25517;52.422;10.782;2023-01-15T11:28:04;7.30;99.90
39847;DHT22;25517;52.422;10.782;2023-01-15T11:30:33;7.30;99.90
39847;DHT22;25517;52.422;10.782;2023-01-15T11:33:03;7.40;99.90
39847;DHT22;25517;52.422;10.782;2023-01-15T11:35:30;7.40;99.90
39847;DHT22;25517;52.422;10.782;2023-01-15T11:38:10;7.50;99.90
39847;DHT22;25517;52.422;10.782;2023-01-15T11:40:37;7.60;99.90
39847;DHT22;25517;52.422;10.782;2023-01-15T11:43:02;7.60;99.90
39847;DHT22;25517;52.422;10.782;2023-01-15T11:45:51;7.70;99.90
39847;DHT22;25517;52.422;10.782;2023-01-15T11:48:44;7.80;99.90
39847;DHT22;25517;52.422;10.782;2023-01-15T11:51:30;8.00;99.90
39847;DHT22;25517;52.422;10.782;2023-01-15T11:54:03;8.20;99.90
39847;DHT22;25517;52.422;10.782;2023-01-15T11:56:33;8.30;99.90
39847;DHT22;25517;52.422;10.782;2023-01-15T11:59:09;9.20;99.90
39847;DHT22;25517;52.422;10.782;2023-01-15T12:01:38;10.20;99.90
39847;DHT22;25517;52.422;10.782;2023-01-15T12:04:38;10.30;99.90
39847;DHT22;25517;52.422;10.782;2023-01-15T12:07:14;10.70;99.50
39847;DHT22;25517;52.422;10.782;2023-01-15T12:09:59;10.70;98.90
39847;DHT22;25517;52.422;10.782;2023-01-15T12:12:46;10.60;99.00
39847;DHT22;25517;52.422;10.782;2023-01-15T12:18:08;9.40;99.90
39847;DHT22;25517;52.422;10.782;2023-01-15T12:29:39;8.60;99.90
39847;DHT22;25517;52.422;10.782;2023-01-15T12:32:15;8.30;99.90
39847;DHT22;25517;52.422;10.782;2023-01-15T12:34:51;8.20;99.90
39847;DHT22;25517;52.422;10.782;2023-01-15T12:37:22;8.20;99.90
39847;DHT22;25517;52.422;10.782;2023-01-15T12:42:37;8.20;99.90
39847;DHT22;25517;52.422;10.782;2023-01-15T12:45:25;8.20;99.90
39847;DHT22;25517;52.422;10.782;2023-01-15T12:48:15;8.30;99.90
39847;DHT22;25517;52.422;10.782;2023-01-15T12:50:50;8.20;99.90
39847;DHT22;25517;52.422;10.782;2023-01-15T12:56:29;8.00;99.90
39847;DHT22;25517;52.422;10.782;2023-01-15T12:59:13;7.90;99.90
39847;DHT22;25517;52.422;10.782;2023-01-15T13:04:51;8.10;99.90
39847;DHT22;25517;52.422;10.782;2023-01-15T13:10:25;8.10;99.90
39847;DHT22;25517;52.422;10.782;2023-01-15T13:12:53;8.10;99.90
39847;DHT22;25517;52.422;10.782;2023-01-15T13:15:23;8.10;99.90
39847;DHT22;25517;52.422;10.782;2023-01-15T13:18:24;8.10;99.40
39847;DHT22;25517;52.422;10.782;2023-01-15T13:20:52;8.00;99.30
39847;DHT22;25517;52.422;10.782;2023-01-15T13:24:14;7.90;99.90
39847;DHT22;25517;52.422;10.782;2023-01-15T13:30:00;7.90;99.00
39847;DHT22;25517;52.422;10.782;2023-01-15T13:32:33;7.90;99.60
39847;DHT22;25517;52.422;10.782;2023-01-15T13:37:50;8.00;98.70
39847;DHT22;25517;52.422;10.782;2023-01-15T13:40:34;8.00;98.70
39847;DHT22;25517;52.422;10.782;2023-01-15T13:43:01;8.00;98.60
39847;DHT22;25517;52.422;10.782;2023-01-15T13:48:27;8.00;98.40
39847;DHT22;25517;52.422;10.782;2023-01-15T13:51:01;8.00;98.30
39847;DHT22;25517;52.422;10.782;2023-01-15T13:53:37;7.90;98.40
39847;DHT22;25517;52.422;10.782;2023-01-15T13:56:06;7.80;98.10
39847;DHT22;25517;52.422;10.782;2023-01-15T13:58:38;7.80;98.50
39847;DHT22;25517;52.422;10.782;2023-01-15T14:04:11;7.80;98.70
39847;DHT22;25517;52.422;10.782;2023-01-15T14:06:48;7.80;98.70
39847;DHT22;25517;52.422;10.782;2023-01-15T14:09:26;7.70;98.50
39847;DHT22;25517;52.422;10.782;2023-01-15T14:12:14;7.70;99.00
39847;DHT22;25517;52.422;10.782;2023-01-15T14:15:12;7.70;99.50
39847;DHT22;25517;52.422;10.782;2023-01-15T14:34:27;7.60;99.20
39847;DHT22;25517;52.422;10.782;2023-01-15T14:37:01;7.70;99.70
39847;DHT22;25517;52.422;10.782;2023-01-15T14:39:36;7.70;99.30
39847;DHT22;25517;52.422;10.782;2023-01-15T14:42:16;7.70;98.90
39847;DHT22;25517;52.422;10.782;2023-01-15T14:45:31;7.70;99.10
39847;DHT22;25517;52.422;10.782;2023-01-15T14:48:04;7.70;98.70
39847;DHT22;25517;52.422;10.782;2023-01-15T14:50:36;7.70;98.90
39847;DHT22;25517;52.422;10.782;2023-01-15T14:55:32;7.70;98.70
39847;DHT22;25517;52.422;10.782;2023-01-15T14:58:05;7.60;98.70
39847;DHT22;25517;52.422;10.782;2023-01-15T15:00:36;7.70;99.00
39847;DHT22;25517;52.422;10.782;2023-01-15T15:03:15;7.70;98.80
39847;DHT22;25517;52.422;10.782;2023-01-15T15:05:42;7.70;98.90
39847;DHT22;25517;52.422;10.782;2023-01-15T15:08:14;7.70;99.10
39847;DHT22;25517;52.422;10.782;2023-01-15T15:10:43;7.70;98.80
39847;DHT22;25517;52.422;10.782;2023-01-15T15:13:28;7.70;98.50
39847;DHT22;25517;52.422;10.782;2023-01-15T15:16:18;7.70;98.40
39847;DHT22;25517;52.422;10.782;2023-01-15T15:19:11;7.80;98.20
39847;DHT22;25517;52.422;10.782;2023-01-15T15:21:41;7.70;98.40
39847;DHT22;25517;52.422;10.782;2023-01-15T15:24:22;7.70;99.10
39847;DHT22;25517;52.422;10.782;2023-01-15T15:26:50;7.70;98.20
39847;DHT22;25517;52.422;10.782;2023-01-15T15:29:17;7.70;98.40
39847;DHT22;25517;52.422;10.782;2023-01-15T15:31:46;7.70;98.50
39847;DHT22;25517;52.422;10.782;2023-01-15T15:34:29;7.70;98.50
39847;DHT22;25517;52.422;10.782;2023-01-15T15:36:58;7.70;98.20
39847;DHT22;25517;52.422;10.782;2023-01-15T15:39:41;7.60;98.70
39847;DHT22;25517;52.422;10.782;2023-01-15T15:42:38;7.60;98.80
39847;DHT22;25517;52.422;10.782;2023-01-15T15:45:24;7.70;98.50
39847;DHT22;25517;52.422;10.782;2023-01-15T15:48:20;7.70;99.00
39847;DHT22;25517;52.422;10.782;2023-01-15T15:51:22;7.70;98.90
39847;DHT22;25517;52.422;10.782;2023-01-15T15:53:48;7.70;99.10
39847;DHT22;25517;52.422;10.782;2023-01-15T15:56:14;7.70;98.70
39847;DHT22;25517;52.422;10.782;2023-01-15T15:58:40;7.70;99.00
39847;DHT22;25517;52.422;10.782;2023-01-15T16:01:10;7.70;99.30
39847;DHT22;25517;52.422;10.782;2023-01-15T16:03:45;7.70;99.30
39847;DHT22;25517;52.422;10.782;2023-01-15T16:06:19;7.70;99.20
39847;DHT22;25517;52.422;10.782;2023-01-15T16:08:52;7.70;99.20
39847;DHT22;25517;52.422;10.782;2023-01-15T16:11:18;7.70;99.50
39847;DHT22;25517;52.422;10.782;2023-01-15T16:13:46;7.60;99.70
39847;DHT22;25517;52.422;10.782;2023-01-15T16:16:13;7.70;99.70
39847;DHT22;25517;52.422;10.782;2023-01-15T16:18:55;7.60;99.40
39847;DHT22;25517;52.422;10.782;2023-01-15T16:21:36;7.60;99.70
39847;DHT22;25517;52.422;10.782;2023-01-15T16:24:08;7.70;99.80
39847;DHT22;25517;52.422;10.782;2023-01-15T16:26:48;7.60;99.80
39847;DHT22;25517;52.422;10.782;2023-01-15T16:29:19;7.60;99.90
39847;DHT22;25517;52.422;10.782;2023-01-15T16:31:46;7.70;99.70
39847;DHT22;25517;52.422;10.782;2023-01-15T16:34:18;7.60;99.40
39847;DHT22;25517;52.422;10.782;2023-01-15T16:36:44;7.60;99.90
39847;DHT22;25517;52.422;10.782;2023-01-15T16:39:22;7.60;99.90
39847;DHT22;25517;52.422;10.782;2023-01-15T16:41:49;7.60;99.60
39847;DHT22;25517;52.422;10.782;2023-01-15T16:44:38;7.70;99.80
39847;DHT22;25517;52.422;10.782;2023-01-15T16:47:24;7.70;99.90
39847;DHT22;25517;52.422;10.782;2023-01-15T16:49:50;7.70;99.70
39847;DHT22;25517;52.422;10.782;2023-01-15T16:52:55;7.70;99.60
39847;DHT22;25517;52.422;10.782;2023-01-15T16:58:15;7.70;99.50
39847;DHT22;25517;52.422;10.782;2023-01-15T17:00:44;7.70;99.80
39847;DHT22;25517;52.422;10.782;2023-01-15T17:03:18;7.70;99.60
39847;DHT22;25517;52.422;10.782;2023-01-15T17:06:10;7.70;99.50
39847;DHT22;25517;52.422;10.782;2023-01-15T17:08:32;7.70;99.90
39847;DHT22;25517;52.422;10.782;2023-01-15T17:11:04;7.70;99.80
39847;DHT22;25517;52.422;10.782;2023-01-15T17:13:33;7.60;99.70
39847;DHT22;25517;52.422;10.782;2023-01-15T17:18:38;7.60;99.80
39847;DHT22;25517;52.422;10.782;2023-01-15T17:21:04;7.60;99.90
39847;DHT22;25517;52.422;10.782;2023-01-15T17:23:32;7.60;99.80
39847;DHT22;25517;52.422;10.782;2023-01-15T17:26:00;7.60;99.90
39847;DHT22;25517;52.422;10.782;2023-01-15T17:28:26;7.60;99.90
39847;DHT22;25517;52.422;10.782;2023-01-15T17:30:57;7.50;99.90
39847;DHT22;25517;52.422;10.782;2023-01-15T17:33:23;7.50;99.90
39847;DHT22;25517;52.422;10.782;2023-01-15T17:35:48;7.50;99.90
39847;DHT22;25517;52.422;10.782;2023-01-15T17:38:15;7.50;99.90
39847;DHT22;25517;52.422;10.782;2023-01-15T17:40:41;7.40;99.90
39847;DHT22;25517;52.422;10.782;2023-01-15T17:43:12;7.50;99.90
39847;DHT22;25517;52.422;10.782;2023-01-15T17:45:38;7.50;99.90
39847;DHT22;25517;52.422;10.782;2023-01-15T17:48:04;7.50;99.90